sensor_id;sensor_type;location;lat;lon;timestamp;temperature;humidity
67777;DHT22;54576;52.020;5.536;2023-06-14T00:00:40;19.80;43.30
67777;DHT22;54576;52.020;5.536;2023-06-14T00:32:31;19.40;61.00
67777;DHT22;54576;52.020;5.536;2023-06-14T00:34:57;19.30;39.70
67777;DHT22;54576;52.020;5.536;2023-06-14T00:37:22;19.30;39.50
67777;DHT22;54576;52.020;5.536;2023-06-14T00:39:48;19.30;54.30
67777;DHT22;54576;52.020;5.536;2023-06-14T00:42:26;19.30;54.40
67777;DHT22;54576;52.020;5.536;2023-06-14T00:44:52;19.20;59.10
67777;DHT22;54576;52.020;5.536;2023-06-14T00:47:18;19.20;60.40
67777;DHT22;54576;52.020;5.536;2023-06-14T00:49:46;19.10;66.30
67777;DHT22;54576;52.020;5.536;2023-06-14T00:52:13;19.10;60.90
67777;DHT22;54576;52.020;5.536;2023-06-14T00:54:40;19.00;54.80
67777;DHT22;54576;52.020;5.536;2023-06-14T00:57:07;19.00;55.90
67777;DHT22;54576;52.020;5.536;2023-06-14T00:59:33;19.00;57.20
67777;DHT22;54576;52.020;5.536;2023-06-14T01:01:59;19.00;58.40
67777;DHT22;54576;52.020;5.536;2023-06-14T01:04:25;19.00;69.90
67777;DHT22;54576;52.020;5.536;2023-06-14T01:07:07;19.00;79.20
67777;DHT22;54576;52.020;5.536;2023-06-14T01:15:03;18.80;57.60
67777;DHT22;54576;52.020;5.536;2023-06-14T01:17:30;18.80;50.50
67777;DHT22;54576;52.020;5.536;2023-06-14T01:19:58;18.70;40.70
67777;DHT22;54576;52.020;5.536;2023-06-14T01:22:27;18.60;41.00
67777;DHT22;54576;52.020;5.536;2023-06-14T01:24:53;18.60;40.90
67777;DHT22;54576;52.020;5.536;2023-06-14T01:27:23;18.60;40.90
67777;DHT22;54576;52.020;5.536;2023-06-14T01:29:51;18.60;41.00
67777;DHT22;54576;52.020;5.536;2023-06-14T01:32:23;18.60;41.30
67777;DHT22;54576;52.020;5.536;2023-06-14T01:34:50;18.50;41.70
67777;DHT22;54576;52.020;5.536;2023-06-14T01:37:16;18.40;60.90
67777;DHT22;54576;52.020;5.536;2023-06-14T01:39:43;18.30;70.00
67777;DHT22;54576;52.020;5.536;2023-06-14T01:42:09;18.20;72.70
67777;DHT22;54576;52.020;5.536;2023-06-14T01:44:37;18.10;80.60
67777;DHT22;54576;52.020;5.536;2023-06-14T01:59:14;18.20;93.20
67777;DHT22;54576;52.020;5.536;2023-06-14T02:01:39;18.10;73.30
67777;DHT22;54576;52.020;5.536;2023-06-14T02:04:05;18.10;69.70
67777;DHT22;54576;52.020;5.536;2023-06-14T02:06:31;18.20;66.10
67777;DHT22;54576;52.020;5.536;2023-06-14T02:08:56;18.20;64.50
67777;DHT22;54576;52.020;5.536;2023-06-14T02:11:23;18.20;63.50
67777;DHT22;54576;52.020;5.536;2023-06-14T02:13:48;18.20;60.80
67777;DHT22;54576;52.020;5.536;2023-06-14T02:16:14;18.10;60.00
67777;DHT22;54576;52.020;5.536;2023-06-14T02:18:39;18.10;59.10
67777;DHT22;54576;52.020;5.536;2023-06-14T02:21:05;18.00;42.30
67777;DHT22;54576;52.020;5.536;2023-06-14T02:23:31;18.00;42.40
67777;DHT22;54576;52.020;5.536;2023-06-14T02:25:57;18.00;42.80
67777;DHT22;54576;52.020;5.536;2023-06-14T02:28:22;17.90;42.20
67777;DHT22;54576;52.020;5.536;2023-06-14T02:30:48;17.90;42.90
67777;DHT22;54576;52.020;5.536;2023-06-14T02:33:14;17.90;42.80
67777;DHT22;54576;52.020;5.536;2023-06-14T02:35:39;17.80;42.50
67777;DHT22;54576;52.020;5.536;2023-06-14T02:38:05;17.80;43.50
67777;DHT22;54576;52.020;5.536;2023-06-14T02:40:30;17.80;42.90
67777;DHT22;54576;52.020;5.536;2023-06-14T02:42:56;17.80;43.00
67777;DHT22;54576;52.020;5.536;2023-06-14T02:45:21;17.70;43.00
67777;DHT22;54576;52.020;5.536;2023-06-14T02:47:48;17.60;43.50
67777;DHT22;54576;52.020;5.536;2023-06-14T02:50:13;17.60;43.80
67777;DHT22;54576;52.020;5.536;2023-06-14T02:52:42;17.50;44.70
67777;DHT22;54576;52.020;5.536;2023-06-14T02:55:07;17.50;51.90
67777;DHT22;54576;52.020;5.536;2023-06-14T02:57:35;17.20;45.00
67777;DHT22;54576;52.020;5.536;2023-06-14T03:00:00;17.10;45.10
67777;DHT22;54576;52.020;5.536;2023-06-14T03:02:26;17.00;45.40
67777;DHT22;54576;52.020;5.536;2023-06-14T03:04:51;16.80;45.60
67777;DHT22;54576;52.020;5.536;2023-06-14T03:07:17;16.70;45.80
67777;DHT22;54576;52.020;5.536;2023-06-14T03:09:45;16.60;46.00
67777;DHT22;54576;52.020;5.536;2023-06-14T03:12:11;16.50;46.00
67777;DHT22;54576;52.020;5.536;2023-06-14T03:14:36;16.50;46.20
67777;DHT22;54576;52.020;5.536;2023-06-14T03:17:05;16.50;46.30
67777;DHT22;54576;52.020;5.536;2023-06-14T03:19:30;16.50;46.20
67777;DHT22;54576;52.020;5.536;2023-06-14T03:21:56;16.50;46.10
67777;DHT22;54576;52.020;5.536;2023-06-14T03:24:25;16.50;45.90
67777;DHT22;54576;52.020;5.536;2023-06-14T03:26:54;16.60;45.90
67777;DHT22;54576;52.020;5.536;2023-06-14T03:29:19;16.70;46.20
67777;DHT22;54576;52.020;5.536;2023-06-14T03:31:57;16.70;45.80
67777;DHT22;54576;52.020;5.536;2023-06-14T03:34:23;16.70;46.30
67777;DHT22;54576;52.020;5.536;2023-06-14T03:36:49;16.70;45.70
67777;DHT22;54576;52.020;5.536;2023-06-14T03:39:15;16.80;45.60
67777;DHT22;54576;52.020;5.536;2023-06-14T03:41:40;16.80;45.50
67777;DHT22;54576;52.020;5.536;2023-06-14T03:44:06;16.80;45.50
67777;DHT22;54576;52.020;5.536;2023-06-14T03:46:31;16.80;45.50
67777;DHT22;54576;52.020;5.536;2023-06-14T03:48:57;16.80;45.50
67777;DHT22;54576;52.020;5.536;2023-06-14T03:51:22;16.80;45.70
67777;DHT22;54576;52.020;5.536;2023-06-14T03:53:49;16.80;45.70
67777;DHT22;54576;52.020;5.536;2023-06-14T03:56:14;16.80;46.20
67777;DHT22;54576;52.020;5.536;2023-06-14T03:58:40;16.90;45.60
67777;DHT22;54576;52.020;5.536;2023-06-14T04:01:05;16.90;45.90
67777;DHT22;54576;52.020;5.536;2023-06-14T04:03:32;16.90;45.60
67777;DHT22;54576;52.020;5.536;2023-06-14T04:05:58;16.90;45.80
67777;DHT22;54576;52.020;5.536;2023-06-14T04:08:25;16.90;45.80
67777;DHT22;54576;52.020;5.536;2023-06-14T04:10:51;16.90;45.90
67777;DHT22;54576;52.020;5.536;2023-06-14T04:13:16;17.00;46.00
67777;DHT22;54576;52.020;5.536;2023-06-14T04:15:42;17.00;45.70
67777;DHT22;54576;52.020;5.536;2023-06-14T04:18:09;17.00;45.90
67777;DHT22;54576;52.020;5.536;2023-06-14T04:20:35;17.10;45.80
67777;DHT22;54576;52.020;5.536;2023-06-14T04:23:15;17.10;45.50
67777;DHT22;54576;52.020;5.536;2023-06-14T04:25:40;17.10;46.00
67777;DHT22;54576;52.020;5.536;2023-06-14T04:28:11;17.10;45.90
67777;DHT22;54576;52.020;5.536;2023-06-14T04:30:37;17.20;45.90
67777;DHT22;54576;52.020;5.536;2023-06-14T04:33:05;17.20;45.20
67777;DHT22;54576;52.020;5.536;2023-06-14T04:35:32;17.50;48.80
67777;DHT22;54576;52.020;5.536;2023-06-14T04:37:58;18.40;82.80
67777;DHT22;54576;52.020;5.536;2023-06-14T04:40:24;19.20;44.00
67777;DHT22;54576;52.020;5.536;2023-06-14T04:42:50;19.90;43.10
67777;DHT22;54576;52.020;5.536;2023-06-14T04:45:16;20.40;42.70
67777;DHT22;54576;52.020;5.536;2023-06-14T04:47:42;20.80;41.60
67777;DHT22;54576;52.020;5.536;2023-06-14T04:50:09;20.90;42.20
67777;DHT22;54576;52.020;5.536;2023-06-14T04:52:36;21.30;41.80
67777;DHT22;54576;52.020;5.536;2023-06-14T04:55:03;21.60;41.60
67777;DHT22;54576;52.020;5.536;2023-06-14T04:57:28;21.90;41.40
67777;DHT22;54576;52.020;5.536;2023-06-14T04:59:54;21.90;41.70
67777;DHT22;54576;52.020;5.536;2023-06-14T05:02:23;22.10;41.80
67777;DHT22;54576;52.020;5.536;2023-06-14T05:04:50;22.60;41.60
67777;DHT22;54576;52.020;5.536;2023-06-14T05:07:15;22.90;41.30
67777;DHT22;54576;52.020;5.536;2023-06-14T05:09:41;23.00;41.00
67777;DHT22;54576;52.020;5.536;2023-06-14T05:12:07;23.20;41.10
67777;DHT22;54576;52.020;5.536;2023-06-14T05:14:36;23.30;41.00
67777;DHT22;54576;52.020;5.536;2023-06-14T05:17:01;23.30;40.80
67777;DHT22;54576;52.020;5.536;2023-06-14T05:21:54;23.50;63.00
67777;DHT22;54576;52.020;5.536;2023-06-14T05:24:19;23.70;40.60
67777;DHT22;54576;52.020;5.536;2023-06-14T05:26:46;23.70;40.70
67777;DHT22;54576;52.020;5.536;2023-06-14T05:29:12;23.70;41.00
67777;DHT22;54576;52.020;5.536;2023-06-14T05:31:37;23.70;41.00
67777;DHT22;54576;52.020;5.536;2023-06-14T05:34:04;23.70;40.90
67777;DHT22;54576;52.020;5.536;2023-06-14T05:36:29;23.80;40.80
67777;DHT22;54576;52.020;5.536;2023-06-14T05:38:55;23.70;40.60
67777;DHT22;54576;52.020;5.536;2023-06-14T05:41:27;23.80;40.80
67777;DHT22;54576;52.020;5.536;2023-06-14T05:43:54;23.80;40.60
67777;DHT22;54576;52.020;5.536;2023-06-14T05:46:20;23.80;39.10
67777;DHT22;54576;52.020;5.536;2023-06-14T05:48:48;24.10;40.70
67777;DHT22;54576;52.020;5.536;2023-06-14T05:51:14;24.10;40.60
67777;DHT22;54576;52.020;5.536;2023-06-14T05:53:43;24.30;40.40
67777;DHT22;54576;52.020;5.536;2023-06-14T05:58:34;24.70;36.60
67777;DHT22;54576;52.020;5.536;2023-06-14T06:01:00;24.60;39.80
67777;DHT22;54576;52.020;5.536;2023-06-14T06:03:26;24.60;40.00
67777;DHT22;54576;52.020;5.536;2023-06-14T06:05:54;24.40;40.00
67777;DHT22;54576;52.020;5.536;2023-06-14T06:08:20;24.40;40.10
67777;DHT22;54576;52.020;5.536;2023-06-14T06:10:46;24.40;39.70
67777;DHT22;54576;52.020;5.536;2023-06-14T06:13:12;24.30;40.00
67777;DHT22;54576;52.020;5.536;2023-06-14T06:15:37;24.20;39.90
67777;DHT22;54576;52.020;5.536;2023-06-14T06:18:03;24.20;39.40
67777;DHT22;54576;52.020;5.536;2023-06-14T06:20:29;24.30;40.60
67777;DHT22;54576;52.020;5.536;2023-06-14T06:22:58;24.60;39.60
67777;DHT22;54576;52.020;5.536;2023-06-14T06:25:24;25.00;39.50
67777;DHT22;54576;52.020;5.536;2023-06-14T06:27:51;25.20;39.30
67777;DHT22;54576;52.020;5.536;2023-06-14T06:30:18;25.50;39.00
67777;DHT22;54576;52.020;5.536;2023-06-14T06:32:43;25.70;38.80
67777;DHT22;54576;52.020;5.536;2023-06-14T06:35:09;25.80;38.50
67777;DHT22;54576;52.020;5.536;2023-06-14T06:37:38;25.80;38.80
67777;DHT22;54576;52.020;5.536;2023-06-14T06:40:04;25.80;38.80
67777;DHT22;54576;52.020;5.536;2023-06-14T06:42:31;25.70;38.70
67777;DHT22;54576;52.020;5.536;2023-06-14T06:44:57;25.70;38.90
67777;DHT22;54576;52.020;5.536;2023-06-14T06:47:22;25.40;38.60
67777;DHT22;54576;52.020;5.536;2023-06-14T06:49:48;25.50;38.90
67777;DHT22;54576;52.020;5.536;2023-06-14T06:52:14;25.60;38.80
67777;DHT22;54576;52.020;5.536;2023-06-14T07:02:02;26.10;93.60
67777;DHT22;54576;52.020;5.536;2023-06-14T07:09:20;26.20;36.50
67777;DHT22;54576;52.020;5.536;2023-06-14T07:11:47;26.40;37.40
67777;DHT22;54576;52.020;5.536;2023-06-14T07:14:12;26.50;37.00
67777;DHT22;54576;52.020;5.536;2023-06-14T07:16:38;26.50;37.00
67777;DHT22;54576;52.020;5.536;2023-06-14T07:19:04;26.40;36.40
67777;DHT22;54576;52.020;5.536;2023-06-14T07:21:30;26.10;35.80
67777;DHT22;54576;52.020;5.536;2023-06-14T07:23:56;25.80;35.60
67777;DHT22;54576;52.020;5.536;2023-06-14T07:26:22;25.60;35.50
67777;DHT22;54576;52.020;5.536;2023-06-14T07:28:48;25.40;35.50
67777;DHT22;54576;52.020;5.536;2023-06-14T07:31:14;25.40;35.50
67777;DHT22;54576;52.020;5.536;2023-06-14T07:33:41;25.60;35.20
67777;DHT22;54576;52.020;5.536;2023-06-14T07:36:07;25.50;34.90
67777;DHT22;54576;52.020;5.536;2023-06-14T07:38:33;25.20;34.60
67777;DHT22;54576;52.020;5.536;2023-06-14T07:40:58;25.00;34.90
67777;DHT22;54576;52.020;5.536;2023-06-14T07:43:24;25.00;34.90
67777;DHT22;54576;52.020;5.536;2023-06-14T07:45:51;25.00;35.00
67777;DHT22;54576;52.020;5.536;2023-06-14T07:48:16;25.10;34.70
67777;DHT22;54576;52.020;5.536;2023-06-14T07:50:42;25.10;34.40
67777;DHT22;54576;52.020;5.536;2023-06-14T07:53:07;24.90;34.50
67777;DHT22;54576;52.020;5.536;2023-06-14T07:55:33;24.90;34.50
67777;DHT22;54576;52.020;5.536;2023-06-14T07:58:05;24.80;34.50
67777;DHT22;54576;52.020;5.536;2023-06-14T08:00:31;24.80;34.60
67777;DHT22;54576;52.020;5.536;2023-06-14T08:02:57;24.90;34.50
67777;DHT22;54576;52.020;5.536;2023-06-14T08:05:24;24.90;34.40
67777;DHT22;54576;52.020;5.536;2023-06-14T08:07:51;24.90;34.40
67777;DHT22;54576;52.020;5.536;2023-06-14T08:10:17;24.80;34.40
67777;DHT22;54576;52.020;5.536;2023-06-14T08:12:42;24.90;34.30
67777;DHT22;54576;52.020;5.536;2023-06-14T08:15:08;24.90;34.10
67777;DHT22;54576;52.020;5.536;2023-06-14T08:17:34;24.80;33.50
67777;DHT22;54576;52.020;5.536;2023-06-14T08:20:00;24.60;33.90
67777;DHT22;54576;52.020;5.536;2023-06-14T08:22:25;24.50;33.90
67777;DHT22;54576;52.020;5.536;2023-06-14T08:24:53;24.50;35.20
67777;DHT22;54576;52.020;5.536;2023-06-14T08:29:45;24.70;68.30
67777;DHT22;54576;52.020;5.536;2023-06-14T08:32:12;24.90;76.40
67777;DHT22;54576;52.020;5.536;2023-06-14T08:34:37;24.80;78.20
67777;DHT22;54576;52.020;5.536;2023-06-14T08:41:56;24.80;32.70
67777;DHT22;54576;52.020;5.536;2023-06-14T08:44:23;25.10;33.70
67777;DHT22;54576;52.020;5.536;2023-06-14T08:46:49;25.30;33.60
67777;DHT22;54576;52.020;5.536;2023-06-14T08:49:17;25.30;33.20
67777;DHT22;54576;52.020;5.536;2023-06-14T08:51:43;25.30;33.20
67777;DHT22;54576;52.020;5.536;2023-06-14T08:54:11;25.40;33.20
67777;DHT22;54576;52.020;5.536;2023-06-14T08:56:38;25.50;33.10
67777;DHT22;54576;52.020;5.536;2023-06-14T08:59:04;25.60;32.90
67777;DHT22;54576;52.020;5.536;2023-06-14T09:01:36;25.70;32.90
67777;DHT22;54576;52.020;5.536;2023-06-14T09:04:02;25.70;32.90
67777;DHT22;54576;52.020;5.536;2023-06-14T09:06:28;25.70;33.10
67777;DHT22;54576;52.020;5.536;2023-06-14T09:08:55;25.70;32.70
67777;DHT22;54576;52.020;5.536;2023-06-14T09:11:23;25.50;32.90
67777;DHT22;54576;52.020;5.536;2023-06-14T09:13:51;25.50;33.00
67777;DHT22;54576;52.020;5.536;2023-06-14T09:16:17;25.60;32.90
67777;DHT22;54576;52.020;5.536;2023-06-14T09:18:44;25.60;32.90
67777;DHT22;54576;52.020;5.536;2023-06-14T09:21:11;25.70;32.60
67777;DHT22;54576;52.020;5.536;2023-06-14T09:23:38;25.60;32.70
67777;DHT22;54576;52.020;5.536;2023-06-14T09:26:12;25.70;32.50
67777;DHT22;54576;52.020;5.536;2023-06-14T09:28:42;25.90;31.60
67777;DHT22;54576;52.020;5.536;2023-06-14T09:31:13;25.90;32.00
67777;DHT22;54576;52.020;5.536;2023-06-14T09:33:44;25.70;32.00
67777;DHT22;54576;52.020;5.536;2023-06-14T09:36:22;25.50;32.20
67777;DHT22;54576;52.020;5.536;2023-06-14T09:39:01;25.50;32.00
67777;DHT22;54576;52.020;5.536;2023-06-14T09:41:33;25.40;31.70
67777;DHT22;54576;52.020;5.536;2023-06-14T09:43:59;25.50;32.00
67777;DHT22;54576;52.020;5.536;2023-06-14T09:46:28;25.60;31.50
67777;DHT22;54576;52.020;5.536;2023-06-14T09:48:55;25.60;32.70
67777;DHT22;54576;52.020;5.536;2023-06-14T09:51:22;25.60;32.70
67777;DHT22;54576;52.020;5.536;2023-06-14T09:53:52;25.70;31.40
67777;DHT22;54576;52.020;5.536;2023-06-14T09:56:28;25.50;31.50
67777;DHT22;54576;52.020;5.536;2023-06-14T10:01:23;25.70;31.00
67777;DHT22;54576;52.020;5.536;2023-06-14T10:04:03;25.80;31.70
67777;DHT22;54576;52.020;5.536;2023-06-14T10:06:29;25.80;31.30
67777;DHT22;54576;52.020;5.536;2023-06-14T10:08:59;25.80;31.70
67777;DHT22;54576;52.020;5.536;2023-06-14T10:11:28;25.80;31.30
67777;DHT22;54576;52.020;5.536;2023-06-14T10:13:57;25.70;31.50
67777;DHT22;54576;52.020;5.536;2023-06-14T10:16:32;25.50;31.60
67777;DHT22;54576;52.020;5.536;2023-06-14T10:21:54;25.40;31.30
67777;DHT22;54576;52.020;5.536;2023-06-14T10:24:33;25.40;31.00
67777;DHT22;54576;52.020;5.536;2023-06-14T10:27:01;25.40;31.30
67777;DHT22;54576;52.020;5.536;2023-06-14T10:29:27;25.30;31.60
67777;DHT22;54576;52.020;5.536;2023-06-14T10:31:59;25.30;31.40
67777;DHT22;54576;52.020;5.536;2023-06-14T10:34:29;25.40;31.60
67777;DHT22;54576;52.020;5.536;2023-06-14T10:39:29;25.50;31.80
67777;DHT22;54576;52.020;5.536;2023-06-14T10:41:56;25.60;31.90
67777;DHT22;54576;52.020;5.536;2023-06-14T10:46:53;25.40;31.40
67777;DHT22;54576;52.020;5.536;2023-06-14T10:49:19;25.40;31.20
67777;DHT22;54576;52.020;5.536;2023-06-14T10:51:51;25.30;31.50
67777;DHT22;54576;52.020;5.536;2023-06-14T10:56:47;25.40;30.80
67777;DHT22;54576;52.020;5.536;2023-06-14T10:59:14;25.40;31.60
67777;DHT22;54576;52.020;5.536;2023-06-14T11:02:47;25.50;31.90
67777;DHT22;54576;52.020;5.536;2023-06-14T11:04:48;25.70;31.60
67777;DHT22;54576;52.020;5.536;2023-06-14T11:12:55;25.60;31.50
67777;DHT22;54576;52.020;5.536;2023-06-14T11:15:28;25.60;31.80
67777;DHT22;54576;52.020;5.536;2023-06-14T11:17:53;25.50;31.20
67777;DHT22;54576;52.020;5.536;2023-06-14T11:20:25;25.50;31.60
67777;DHT22;54576;52.020;5.536;2023-06-14T11:22:52;25.60;31.80
67777;DHT22;54576;52.020;5.536;2023-06-14T11:25:17;25.70;31.80
67777;DHT22;54576;52.020;5.536;2023-06-14T11:27:44;25.90;31.70
67777;DHT22;54576;52.020;5.536;2023-06-14T11:30:10;25.90;31.50
67777;DHT22;54576;52.020;5.536;2023-06-14T11:32:36;25.90;64.20
67777;DHT22;54576;52.020;5.536;2023-06-14T11:35:03;25.90;31.60
67777;DHT22;54576;52.020;5.536;2023-06-14T11:37:30;25.80;31.50
67777;DHT22;54576;52.020;5.536;2023-06-14T11:39:58;25.90;31.40
67777;DHT22;54576;52.020;5.536;2023-06-14T11:42:28;25.90;31.60
67777;DHT22;54576;52.020;5.536;2023-06-14T11:44:55;26.10;31.50
67777;DHT22;54576;52.020;5.536;2023-06-14T11:47:22;26.20;31.40
67777;DHT22;54576;52.020;5.536;2023-06-14T11:49:47;26.30;31.40
67777;DHT22;54576;52.020;5.536;2023-06-14T11:52:17;26.20;31.00
67777;DHT22;54576;52.020;5.536;2023-06-14T11:54:43;26.20;30.80
67777;DHT22;54576;52.020;5.536;2023-06-14T11:57:09;26.00;31.00
67777;DHT22;54576;52.020;5.536;2023-06-14T11:59:43;25.90;31.40
67777;DHT22;54576;52.020;5.536;2023-06-14T12:02:10;25.90;31.20
67777;DHT22;54576;52.020;5.536;2023-06-14T12:04:41;26.00;31.20
67777;DHT22;54576;52.020;5.536;2023-06-14T12:07:11;25.90;30.90
67777;DHT22;54576;52.020;5.536;2023-06-14T12:12:25;25.80;30.90
67777;DHT22;54576;52.020;5.536;2023-06-14T12:17:18;25.90;63.60
67777;DHT22;54576;52.020;5.536;2023-06-14T12:19:45;25.80;31.30
67777;DHT22;54576;52.020;5.536;2023-06-14T12:22:14;25.70;31.10
67777;DHT22;54576;52.020;5.536;2023-06-14T12:24:44;25.70;31.10
67777;DHT22;54576;52.020;5.536;2023-06-14T12:27:09;25.80;31.30
67777;DHT22;54576;52.020;5.536;2023-06-14T12:29:38;25.90;31.30
67777;DHT22;54576;52.020;5.536;2023-06-14T12:32:03;25.70;30.80
67777;DHT22;54576;52.020;5.536;2023-06-14T12:34:29;25.60;31.30
67777;DHT22;54576;52.020;5.536;2023-06-14T12:36:57;25.60;31.30
67777;DHT22;54576;52.020;5.536;2023-06-14T12:39:23;25.80;31.30
67777;DHT22;54576;52.020;5.536;2023-06-14T12:41:52;25.80;31.20
67777;DHT22;54576;52.020;5.536;2023-06-14T12:44:18;25.70;31.00
67777;DHT22;54576;52.020;5.536;2023-06-14T12:49:16;25.70;30.30
67777;DHT22;54576;52.020;5.536;2023-06-14T12:54:09;25.90;89.50
67777;DHT22;54576;52.020;5.536;2023-06-14T12:56:34;26.00;31.10
67777;DHT22;54576;52.020;5.536;2023-06-14T12:59:00;25.80;30.90
67777;DHT22;54576;52.020;5.536;2023-06-14T13:01:34;25.70;31.10
67777;DHT22;54576;52.020;5.536;2023-06-14T13:04:00;25.60;31.30
67777;DHT22;54576;52.020;5.536;2023-06-14T13:06:26;25.70;31.40
67777;DHT22;54576;52.020;5.536;2023-06-14T13:08:51;25.60;31.30
67777;DHT22;54576;52.020;5.536;2023-06-14T13:13:46;25.80;41.50
67777;DHT22;54576;52.020;5.536;2023-06-14T13:18:39;25.80;30.60
67777;DHT22;54576;52.020;5.536;2023-06-14T13:21:05;25.80;31.30
67777;DHT22;54576;52.020;5.536;2023-06-14T13:30:49;26.00;30.10
67777;DHT22;54576;52.020;5.536;2023-06-14T13:33:39;26.10;31.00
67777;DHT22;54576;52.020;5.536;2023-06-14T13:36:08;26.10;30.60
67777;DHT22;54576;52.020;5.536;2023-06-14T13:38:33;26.10;31.00
67777;DHT22;54576;52.020;5.536;2023-06-14T13:40:59;26.10;31.00
67777;DHT22;54576;52.020;5.536;2023-06-14T13:43:24;26.10;31.00
67777;DHT22;54576;52.020;5.536;2023-06-14T13:45:50;26.00;31.10
67777;DHT22;54576;52.020;5.536;2023-06-14T13:48:15;26.00;30.80
67777;DHT22;54576;52.020;5.536;2023-06-14T13:50:41;25.90;30.80
67777;DHT22;54576;52.020;5.536;2023-06-14T13:53:11;26.00;30.90
67777;DHT22;54576;52.020;5.536;2023-06-14T13:55:36;26.10;30.60
67777;DHT22;54576;52.020;5.536;2023-06-14T13:58:02;26.10;30.60
67777;DHT22;54576;52.020;5.536;2023-06-14T14:00:27;26.10;30.90
67777;DHT22;54576;52.020;5.536;2023-06-14T14:02:53;26.20;30.70
67777;DHT22;54576;52.020;5.536;2023-06-14T14:05:20;26.20;30.60
67777;DHT22;54576;52.020;5.536;2023-06-14T14:07:45;26.20;30.70
67777;DHT22;54576;52.020;5.536;2023-06-14T14:10:11;26.30;30.70
67777;DHT22;54576;52.020;5.536;2023-06-14T14:12:38;26.40;30.90
67777;DHT22;54576;52.020;5.536;2023-06-14T14:15:05;26.20;30.50
67777;DHT22;54576;52.020;5.536;2023-06-14T14:17:37;26.10;30.80
67777;DHT22;54576;52.020;5.536;2023-06-14T14:20:03;26.20;31.00
67777;DHT22;54576;52.020;5.536;2023-06-14T14:22:28;26.30;30.80
67777;DHT22;54576;52.020;5.536;2023-06-14T14:24:54;26.20;30.70
67777;DHT22;54576;52.020;5.536;2023-06-14T14:27:19;26.30;30.90
67777;DHT22;54576;52.020;5.536;2023-06-14T14:29:45;26.30;30.70
67777;DHT22;54576;52.020;5.536;2023-06-14T14:32:11;26.50;30.80
67777;DHT22;54576;52.020;5.536;2023-06-14T14:34:39;26.60;30.70
67777;DHT22;54576;52.020;5.536;2023-06-14T14:37:05;26.70;30.80
67777;DHT22;54576;52.020;5.536;2023-06-14T14:39:30;26.70;30.60
67777;DHT22;54576;52.020;5.536;2023-06-14T14:41:56;26.70;30.70
67777;DHT22;54576;52.020;5.536;2023-06-14T14:44:22;26.70;30.70
67777;DHT22;54576;52.020;5.536;2023-06-14T14:46:47;26.60;30.90
67777;DHT22;54576;52.020;5.536;2023-06-14T14:49:14;26.50;30.70
67777;DHT22;54576;52.020;5.536;2023-06-14T14:51:42;26.50;30.80
67777;DHT22;54576;52.020;5.536;2023-06-14T14:54:08;26.50;30.70
67777;DHT22;54576;52.020;5.536;2023-06-14T14:56:33;26.30;31.00
67777;DHT22;54576;52.020;5.536;2023-06-14T14:59:00;26.30;32.20
67777;DHT22;54576;52.020;5.536;2023-06-14T15:01:26;26.30;31.10
67777;DHT22;54576;52.020;5.536;2023-06-14T15:03:51;26.40;31.40
67777;DHT22;54576;52.020;5.536;2023-06-14T15:06:20;26.50;31.30
67777;DHT22;54576;52.020;5.536;2023-06-14T15:08:45;26.40;31.20
67777;DHT22;54576;52.020;5.536;2023-06-14T15:11:11;26.30;31.10
67777;DHT22;54576;52.020;5.536;2023-06-14T15:13:37;26.30;31.10
67777;DHT22;54576;52.020;5.536;2023-06-14T15:16:02;26.10;31.00
67777;DHT22;54576;52.020;5.536;2023-06-14T15:18:28;26.00;32.10
67777;DHT22;54576;52.020;5.536;2023-06-14T15:23:20;26.10;92.10
67777;DHT22;54576;52.020;5.536;2023-06-14T15:25:47;25.90;30.80
67777;DHT22;54576;52.020;5.536;2023-06-14T15:30:39;25.90;29.90
67777;DHT22;54576;52.020;5.536;2023-06-14T15:33:04;26.00;30.60
67777;DHT22;54576;52.020;5.536;2023-06-14T15:35:30;26.00;30.40
67777;DHT22;54576;52.020;5.536;2023-06-14T15:37:56;26.10;30.50
67777;DHT22;54576;52.020;5.536;2023-06-14T15:40:21;26.30;30.30
67777;DHT22;54576;52.020;5.536;2023-06-14T15:42:47;26.20;30.40
67777;DHT22;54576;52.020;5.536;2023-06-14T16:38:55;26.20;90.80
67777;DHT22;54576;52.020;5.536;2023-06-14T16:41:20;26.10;31.00
67777;DHT22;54576;52.020;5.536;2023-06-14T16:43:46;26.10;31.00
67777;DHT22;54576;52.020;5.536;2023-06-14T16:46:13;25.90;30.80
67777;DHT22;54576;52.020;5.536;2023-06-14T16:48:39;25.90;31.10
67777;DHT22;54576;52.020;5.536;2023-06-14T16:51:05;25.90;31.30
67777;DHT22;54576;52.020;5.536;2023-06-14T16:53:30;26.00;31.20
67777;DHT22;54576;52.020;5.536;2023-06-14T16:55:56;26.00;30.90
67777;DHT22;54576;52.020;5.536;2023-06-14T16:58:45;26.00;31.10
67777;DHT22;54576;52.020;5.536;2023-06-14T17:01:11;26.00;31.20
67777;DHT22;54576;52.020;5.536;2023-06-14T17:03:37;25.90;31.30
67777;DHT22;54576;52.020;5.536;2023-06-14T17:06:03;25.70;31.40
67777;DHT22;54576;52.020;5.536;2023-06-14T17:08:29;25.70;31.50
67777;DHT22;54576;52.020;5.536;2023-06-14T17:10:55;25.70;31.50
67777;DHT22;54576;52.020;5.536;2023-06-14T17:13:22;25.70;31.40
67777;DHT22;54576;52.020;5.536;2023-06-14T17:15:48;25.70;31.30
67777;DHT22;54576;52.020;5.536;2023-06-14T17:18:13;25.70;31.20
67777;DHT22;54576;52.020;5.536;2023-06-14T17:20:39;25.70;31.20
67777;DHT22;54576;52.020;5.536;2023-06-14T17:23:04;25.60;31.40
67777;DHT22;54576;52.020;5.536;2023-06-14T17:25:30;25.60;31.60
67777;DHT22;54576;52.020;5.536;2023-06-14T17:27:56;25.50;31.80
67777;DHT22;54576;52.020;5.536;2023-06-14T17:30:21;25.60;32.00
67777;DHT22;54576;52.020;5.536;2023-06-14T17:32:47;25.50;31.80
67777;DHT22;54576;52.020;5.536;2023-06-14T17:35:12;25.50;31.90
67777;DHT22;54576;52.020;5.536;2023-06-14T17:37:39;25.50;31.80
67777;DHT22;54576;52.020;5.536;2023-06-14T17:40:06;25.50;31.70
67777;DHT22;54576;52.020;5.536;2023-06-14T17:42:32;25.50;31.60
67777;DHT22;54576;52.020;5.536;2023-06-14T17:44:57;25.50;31.60
67777;DHT22;54576;52.020;5.536;2023-06-14T17:47:24;25.40;31.60
67777;DHT22;54576;52.020;5.536;2023-06-14T17:49:50;25.40;31.80
67777;DHT22;54576;52.020;5.536;2023-06-14T17:52:20;25.50;31.90
67777;DHT22;54576;52.020;5.536;2023-06-14T17:54:46;25.50;31.80
67777;DHT22;54576;52.020;5.536;2023-06-14T17:57:12;25.50;31.80
67777;DHT22;54576;52.020;5.536;2023-06-14T17:59:38;25.40;31.80
67777;DHT22;54576;52.020;5.536;2023-06-14T18:02:04;25.30;31.90
67777;DHT22;54576;52.020;5.536;2023-06-14T18:04:29;25.30;32.00
67777;DHT22;54576;52.020;5.536;2023-06-14T18:06:55;25.30;32.10
67777;DHT22;54576;52.020;5.536;2023-06-14T18:09:21;25.20;32.20
67777;DHT22;54576;52.020;5.536;2023-06-14T18:11:46;25.20;32.60
67777;DHT22;54576;52.020;5.536;2023-06-14T18:14:12;25.30;33.00
67777;DHT22;54576;52.020;5.536;2023-06-14T18:16:38;25.30;33.30
67777;DHT22;54576;52.020;5.536;2023-06-14T18:19:08;25.30;33.50